ěÝzenÝ letovÚho provozu ╚eskÚ republiky
Letiste: LKPR Aktualizace: 07.04.2020 04:46:26  UTC
 METAR LKPR 07.04. 04:30 ...
METAR LKPR 070430Z VRB01KT CAVOK 05/M03 Q1029 NOSIG RMK REG QNH 1026=
 TAF LKPR 06.04. 23:00 ...
TAF LKPR 062300Z 0700/0806 15006KT CAVOK      TEMPO 0703/0709 VRB02KT      BECMG 0709/0712 09008KT=